sensor_id;sensor_type;location;lat;lon;timestamp;pressure;altitude;pressure_sealevel;temperature;humidity
24762;BME280;12865;51.934;10.330;2023-06-19T00:01:11;98777.72;;;19.92;84.07
24762;BME280;12865;51.934;10.330;2023-06-19T00:03:56;98779.19;;;19.95;84.33
24762;BME280;12865;51.934;10.330;2023-06-19T00:06:42;98772.94;;;19.94;83.22
24762;BME280;12865;51.934;10.330;2023-06-19T00:09:28;98766.69;;;19.94;84.59
24762;BME280;12865;51.934;10.330;2023-06-19T00:12:13;98767.75;;;19.86;84.45
24762;BME280;12865;51.934;10.330;2023-06-19T00:14:59;98762.97;;;19.82;84.64
24762;BME280;12865;51.934;10.330;2023-06-19T00:17:45;98770.66;;;19.78;85.64
24762;BME280;12865;51.934;10.330;2023-06-19T00:20:30;98758.41;;;19.69;86.26
24762;BME280;12865;51.934;10.330;2023-06-19T00:23:16;98764.03;;;19.68;86.46
24762;BME280;12865;51.934;10.330;2023-06-19T00:26:02;98762.75;;;19.64;86.47
24762;BME280;12865;51.934;10.330;2023-06-19T00:28:49;98760.28;;;19.62;85.27
24762;BME280;12865;51.934;10.330;2023-06-19T00:31:34;98757.16;;;19.58;85.62
24762;BME280;12865;51.934;10.330;2023-06-19T00:34:22;98756.53;;;19.56;85.78
24762;BME280;12865;51.934;10.330;2023-06-19T00:37:11;98747.78;;;19.41;86.29
24762;BME280;12865;51.934;10.330;2023-06-19T00:39:58;98744.25;;;19.41;85.98
24762;BME280;12865;51.934;10.330;2023-06-19T00:42:44;98744.44;;;19.39;85.22
24762;BME280;12865;51.934;10.330;2023-06-19T00:45:29;98742.78;;;19.38;84.53
24762;BME280;12865;51.934;10.330;2023-06-19T00:48:15;98745.28;;;19.33;84.38
24762;BME280;12865;51.934;10.330;2023-06-19T00:51:01;98737.16;;;19.27;85.23
24762;BME280;12865;51.934;10.330;2023-06-19T00:53:47;98736.94;;;19.21;85.60
24762;BME280;12865;51.934;10.330;2023-06-19T00:56:33;98737.38;;;19.18;85.92
24762;BME280;12865;51.934;10.330;2023-06-19T00:59:22;98732.56;;;19.14;85.87
24762;BME280;12865;51.934;10.330;2023-06-19T01:02:08;98730.69;;;19.14;85.60
24762;BME280;12865;51.934;10.330;2023-06-19T01:04:54;98727.78;;;19.16;85.30
24762;BME280;12865;51.934;10.330;2023-06-19T01:10:41;98712.19;;;19.11;85.88
24762;BME280;12865;51.934;10.330;2023-06-19T01:13:47;98709.50;;;19.05;86.44
24762;BME280;12865;51.934;10.330;2023-06-19T01:16:34;98705.97;;;18.98;86.90
24762;BME280;12865;51.934;10.330;2023-06-19T01:19:21;98704.09;;;18.98;88.24
24762;BME280;12865;51.934;10.330;2023-06-19T01:22:07;98698.69;;;19.05;87.04
24762;BME280;12865;51.934;10.330;2023-06-19T01:24:53;98692.03;;;19.14;86.39
24762;BME280;12865;51.934;10.330;2023-06-19T01:27:38;98687.69;;;19.13;86.92
24762;BME280;12865;51.934;10.330;2023-06-19T01:30:25;98697.44;;;19.14;86.83
24762;BME280;12865;51.934;10.330;2023-06-19T01:33:23;98691.22;;;19.20;87.01
24762;BME280;12865;51.934;10.330;2023-06-19T01:36:12;98687.69;;;19.26;86.53
24762;BME280;12865;51.934;10.330;2023-06-19T01:38:58;98692.66;;;19.22;86.42
24762;BME280;12865;51.934;10.330;2023-06-19T01:41:45;98693.69;;;19.21;86.29
24762;BME280;12865;51.934;10.330;2023-06-19T01:44:32;98684.34;;;19.17;87.20
24762;BME280;12865;51.934;10.330;2023-06-19T01:47:18;98687.44;;;19.14;87.47
24762;BME280;12865;51.934;10.330;2023-06-19T01:50:06;98687.44;;;19.08;88.30
24762;BME280;12865;51.934;10.330;2023-06-19T01:52:52;98681.44;;;19.06;88.51
24762;BME280;12865;51.934;10.330;2023-06-19T01:55:38;98677.47;;;19.02;89.00
24762;BME280;12865;51.934;10.330;2023-06-19T01:58:23;98686.22;;;19.04;88.94
24762;BME280;12865;51.934;10.330;2023-06-19T02:01:09;98687.06;;;19.04;88.82
24762;BME280;12865;51.934;10.330;2023-06-19T02:03:54;98684.94;;;19.06;87.76
24762;BME280;12865;51.934;10.330;2023-06-19T02:06:40;98680.19;;;19.15;86.81
24762;BME280;12865;51.934;10.330;2023-06-19T02:09:27;98674.56;;;19.23;86.85
24762;BME280;12865;51.934;10.330;2023-06-19T02:12:13;98683.31;;;19.25;86.69
24762;BME280;12865;51.934;10.330;2023-06-19T02:14:58;98680.59;;;19.25;87.76
24762;BME280;12865;51.934;10.330;2023-06-19T02:17:44;98678.75;;;19.26;86.94
24762;BME280;12865;51.934;10.330;2023-06-19T02:20:30;98681.44;;;19.32;86.53
24762;BME280;12865;51.934;10.330;2023-06-19T02:23:15;98680.41;;;19.33;87.33
24762;BME280;12865;51.934;10.330;2023-06-19T02:26:01;98681.63;;;19.37;86.68
24762;BME280;12865;51.934;10.330;2023-06-19T02:28:47;98682.91;;;19.41;85.34
24762;BME280;12865;51.934;10.330;2023-06-19T02:31:32;98697.84;;;19.44;85.20
24762;BME280;12865;51.934;10.330;2023-06-19T02:34:18;98686.81;;;19.45;86.03
24762;BME280;12865;51.934;10.330;2023-06-19T02:37:04;98694.09;;;19.45;86.43
24762;BME280;12865;51.934;10.330;2023-06-19T02:39:49;98694.09;;;19.45;85.48
24762;BME280;12865;51.934;10.330;2023-06-19T02:42:35;98685.38;;;19.49;85.66
24762;BME280;12865;51.934;10.330;2023-06-19T02:45:21;98681.81;;;19.42;87.52
24762;BME280;12865;51.934;10.330;2023-06-19T02:48:07;98687.47;;;19.34;88.21
24762;BME280;12865;51.934;10.330;2023-06-19T02:50:52;98682.28;;;19.26;88.85
24762;BME280;12865;51.934;10.330;2023-06-19T02:53:38;98684.53;;;19.22;88.74
24762;BME280;12865;51.934;10.330;2023-06-19T02:56:25;98692.84;;;19.21;88.35
24762;BME280;12865;51.934;10.330;2023-06-19T02:59:11;98677.06;;;19.25;88.40
24762;BME280;12865;51.934;10.330;2023-06-19T03:01:57;98678.94;;;19.24;87.63
24762;BME280;12865;51.934;10.330;2023-06-19T03:04:43;98671.47;;;19.26;87.66
24762;BME280;12865;51.934;10.330;2023-06-19T03:07:29;98669.34;;;19.28;88.42
24762;BME280;12865;51.934;10.330;2023-06-19T03:10:15;98668.13;;;19.24;88.76
24762;BME280;12865;51.934;10.330;2023-06-19T03:13:00;98667.09;;;19.25;88.83
24762;BME280;12865;51.934;10.330;2023-06-19T03:15:46;98672.91;;;19.29;87.86
24762;BME280;12865;51.934;10.330;2023-06-19T03:18:32;98678.72;;;19.39;87.32
24762;BME280;12865;51.934;10.330;2023-06-19T03:21:17;98668.94;;;19.38;88.24
24762;BME280;12865;51.934;10.330;2023-06-19T03:24:05;98676.22;;;19.37;86.79
24762;BME280;12865;51.934;10.330;2023-06-19T03:26:51;98679.34;;;19.41;84.41
24762;BME280;12865;51.934;10.330;2023-06-19T03:29:36;98686.44;;;19.48;86.19
24762;BME280;12865;51.934;10.330;2023-06-19T03:32:22;98682.06;;;19.54;86.54
24762;BME280;12865;51.934;10.330;2023-06-19T03:35:08;98692.88;;;19.60;86.10
24762;BME280;12865;51.934;10.330;2023-06-19T03:37:55;98692.88;;;19.60;91.85
24762;BME280;12865;51.934;10.330;2023-06-19T03:40:41;98702.22;;;19.58;91.57
24762;BME280;12865;51.934;10.330;2023-06-19T03:43:26;98696.44;;;19.54;93.59
24762;BME280;12865;51.934;10.330;2023-06-19T03:46:12;98693.28;;;19.44;95.27
24762;BME280;12865;51.934;10.330;2023-06-19T03:48:58;98693.47;;;19.36;96.80
24762;BME280;12865;51.934;10.330;2023-06-19T03:51:43;98692.84;;;19.28;98.99
24762;BME280;12865;51.934;10.330;2023-06-19T03:54:29;98694.97;;;19.26;100.00
24762;BME280;12865;51.934;10.330;2023-06-19T03:57:15;98693.47;;;19.30;100.00
24762;BME280;12865;51.934;10.330;2023-06-19T04:00:01;98687.25;;;19.36;100.00
24762;BME280;12865;51.934;10.330;2023-06-19T04:02:46;98693.28;;;19.31;100.00
24762;BME280;12865;51.934;10.330;2023-06-19T04:05:32;98688.53;;;19.20;100.00
24762;BME280;12865;51.934;10.330;2023-06-19T04:08:18;98699.53;;;19.25;100.00
24762;BME280;12865;51.934;10.330;2023-06-19T04:11:03;98697.03;;;19.23;100.00
24762;BME280;12865;51.934;10.330;2023-06-19T04:13:49;98682.28;;;19.26;100.00
24762;BME280;12865;51.934;10.330;2023-06-19T04:16:35;98685.38;;;19.30;100.00
24762;BME280;12865;51.934;10.330;2023-06-19T04:19:20;98683.09;;;19.33;100.00
24762;BME280;12865;51.934;10.330;2023-06-19T04:22:06;98693.28;;;19.31;100.00
24762;BME280;12865;51.934;10.330;2023-06-19T04:24:51;98674.38;;;19.31;100.00
24762;BME280;12865;51.934;10.330;2023-06-19T04:27:37;98683.94;;;19.34;100.00
24762;BME280;12865;51.934;10.330;2023-06-19T04:30:23;98691.22;;;19.33;100.00
24762;BME280;12865;51.934;10.330;2023-06-19T04:33:08;98688.91;;;19.30;100.00
24762;BME280;12865;51.934;10.330;2023-06-19T04:35:55;98692.66;;;19.29;100.00
24762;BME280;12865;51.934;10.330;2023-06-19T04:38:41;98696.81;;;19.32;100.00
24762;BME280;12865;51.934;10.330;2023-06-19T04:41:27;98687.88;;;19.38;100.00
24762;BME280;12865;51.934;10.330;2023-06-19T04:44:13;98695.34;;;19.42;100.00
24762;BME280;12865;51.934;10.330;2023-06-19T04:46:59;98695.97;;;19.44;100.00
24762;BME280;12865;51.934;10.330;2023-06-19T04:52:14;98715.13;;;19.49;100.00
24762;BME280;12865;51.934;10.330;2023-06-19T04:54:59;98725.75;;;19.57;99.32
24762;BME280;12865;51.934;10.330;2023-06-19T04:57:45;98727.00;;;19.62;91.47
24762;BME280;12865;51.934;10.330;2023-06-19T05:00:31;98725.09;;;19.55;92.44
24762;BME280;12865;51.934;10.330;2023-06-19T05:03:17;98723.03;;;19.57;93.95
24762;BME280;12865;51.934;10.330;2023-06-19T05:06:03;98725.34;;;19.54;95.75
24762;BME280;12865;51.934;10.330;2023-06-19T05:08:49;98730.13;;;19.52;93.70
24762;BME280;12865;51.934;10.330;2023-06-19T05:11:35;98728.25;;;19.52;96.21
24762;BME280;12865;51.934;10.330;2023-06-19T05:14:20;98726.97;;;19.48;99.28
24762;BME280;12865;51.934;10.330;2023-06-19T05:17:06;98727.19;;;19.40;100.00
24762;BME280;12865;51.934;10.330;2023-06-19T05:19:52;98729.47;;;19.37;100.00
24762;BME280;12865;51.934;10.330;2023-06-19T05:22:37;98728.44;;;19.31;100.00
24762;BME280;12865;51.934;10.330;2023-06-19T05:25:23;98734.03;;;19.36;100.00
24762;BME280;12865;51.934;10.330;2023-06-19T05:28:09;98731.31;;;19.43;100.00
24762;BME280;12865;51.934;10.330;2023-06-19T05:30:54;98734.06;;;19.49;100.00
24762;BME280;12865;51.934;10.330;2023-06-19T05:33:41;98727.81;;;19.55;100.00
24762;BME280;12865;51.934;10.330;2023-06-19T05:36:27;98725.34;;;19.60;100.00
24762;BME280;12865;51.934;10.330;2023-06-19T05:39:13;98734.88;;;19.63;100.00
24762;BME280;12865;51.934;10.330;2023-06-19T05:41:59;98726.75;;;19.63;100.00
24762;BME280;12865;51.934;10.330;2023-06-19T05:44:44;98725.13;;;19.62;100.00
24762;BME280;12865;51.934;10.330;2023-06-19T05:47:30;98730.75;;;19.60;100.00
24762;BME280;12865;51.934;10.330;2023-06-19T05:50:16;98725.72;;;19.71;100.00
24762;BME280;12865;51.934;10.330;2023-06-19T05:53:01;98728.22;;;19.79;100.00
24762;BME280;12865;51.934;10.330;2023-06-19T05:55:47;98736.50;;;19.84;100.00
24762;BME280;12865;51.934;10.330;2023-06-19T05:58:33;98729.44;;;19.96;100.00
24762;BME280;12865;51.934;10.330;2023-06-19T06:01:18;98730.88;;;19.98;99.78
24762;BME280;12865;51.934;10.330;2023-06-19T06:04:04;98733.78;;;20.10;97.16
24762;BME280;12865;51.934;10.330;2023-06-19T06:06:50;98743.31;;;20.19;92.94
24762;BME280;12865;51.934;10.330;2023-06-19T06:09:36;98733.91;;;20.28;90.85
24762;BME280;12865;51.934;10.330;2023-06-19T06:12:21;98745.56;;;20.29;90.55
24762;BME280;12865;51.934;10.330;2023-06-19T06:15:07;98732.66;;;20.37;91.28
24762;BME280;12865;51.934;10.330;2023-06-19T06:17:53;98742.84;;;20.42;92.44
24762;BME280;12865;51.934;10.330;2023-06-19T06:20:39;98748.50;;;20.34;93.23
24762;BME280;12865;51.934;10.330;2023-06-19T06:23:25;98750.38;;;20.33;94.41
24762;BME280;12865;51.934;10.330;2023-06-19T06:26:11;98757.25;;;20.36;93.99
24762;BME280;12865;51.934;10.330;2023-06-19T06:28:56;98764.72;;;20.41;92.25
24762;BME280;12865;51.934;10.330;2023-06-19T06:31:46;98761.59;;;20.44;92.37
24762;BME280;12865;51.934;10.330;2023-06-19T06:34:32;98769.91;;;20.42;92.47
24762;BME280;12865;51.934;10.330;2023-06-19T06:37:18;98765.94;;;20.51;92.42
24762;BME280;12865;51.934;10.330;2023-06-19T06:40:08;98770.53;;;20.51;91.82
24762;BME280;12865;51.934;10.330;2023-06-19T06:42:56;98774.03;;;20.58;91.14
24762;BME280;12865;51.934;10.330;2023-06-19T06:45:42;98772.53;;;20.62;91.14
24762;BME280;12865;51.934;10.330;2023-06-19T06:48:27;98764.63;;;20.67;90.68
24762;BME280;12865;51.934;10.330;2023-06-19T06:51:13;98762.91;;;20.79;90.42
24762;BME280;12865;51.934;10.330;2023-06-19T06:53:59;98765.34;;;20.87;90.04
24762;BME280;12865;51.934;10.330;2023-06-19T06:56:44;98780.50;;;21.01;88.99
24762;BME280;12865;51.934;10.330;2023-06-19T06:59:33;98798.66;;;21.32;86.44
24762;BME280;12865;51.934;10.330;2023-06-19T07:02:18;98799.59;;;21.51;86.02
24762;BME280;12865;51.934;10.330;2023-06-19T07:05:04;98794.06;;;21.64;86.21
24762;BME280;12865;51.934;10.330;2023-06-19T07:07:50;98788.91;;;21.81;86.60
24762;BME280;12865;51.934;10.330;2023-06-19T07:10:36;98794.19;;;21.94;82.64
24762;BME280;12865;51.934;10.330;2023-06-19T07:13:21;98785.31;;;22.12;80.69
24762;BME280;12865;51.934;10.330;2023-06-19T07:16:07;98783.19;;;22.32;80.35
24762;BME280;12865;51.934;10.330;2023-06-19T07:18:53;98784.78;;;22.58;76.90
24762;BME280;12865;51.934;10.330;2023-06-19T07:21:39;98784.56;;;23.07;75.24
24762;BME280;12865;51.934;10.330;2023-06-19T07:24:25;98784.28;;;23.57;73.74
24762;BME280;12865;51.934;10.330;2023-06-19T07:27:10;98780.88;;;23.85;72.46
24762;BME280;12865;51.934;10.330;2023-06-19T07:29:56;98783.72;;;24.02;69.77
24762;BME280;12865;51.934;10.330;2023-06-19T07:32:42;98782.56;;;24.21;68.37
24762;BME280;12865;51.934;10.330;2023-06-19T07:35:28;98782.19;;;24.17;65.03
24762;BME280;12865;51.934;10.330;2023-06-19T07:38:13;98776.88;;;24.22;67.68
24762;BME280;12865;51.934;10.330;2023-06-19T07:40:59;98775.94;;;24.29;67.12
24762;BME280;12865;51.934;10.330;2023-06-19T07:43:45;98782.31;;;24.34;68.38
24762;BME280;12865;51.934;10.330;2023-06-19T07:46:30;98787.63;;;24.41;69.03
24762;BME280;12865;51.934;10.330;2023-06-19T07:49:16;98782.63;;;24.49;70.34
24762;BME280;12865;51.934;10.330;2023-06-19T07:52:05;98789.16;;;24.60;69.96
24762;BME280;12865;51.934;10.330;2023-06-19T07:54:54;98783.56;;;24.67;72.30
24762;BME280;12865;51.934;10.330;2023-06-19T07:57:40;98777.47;;;24.76;70.62
24762;BME280;12865;51.934;10.330;2023-06-19T08:00:26;98773.19;;;24.92;71.93
24762;BME280;12865;51.934;10.330;2023-06-19T08:03:11;98778.28;;;25.17;64.40
24762;BME280;12865;51.934;10.330;2023-06-19T08:05:57;98783.19;;;25.60;60.04
24762;BME280;12865;51.934;10.330;2023-06-19T08:08:43;98785.00;;;25.88;54.13
24762;BME280;12865;51.934;10.330;2023-06-19T08:11:29;98783.34;;;26.03;55.85
24762;BME280;12865;51.934;10.330;2023-06-19T08:14:14;98785.47;;;26.35;54.69
24762;BME280;12865;51.934;10.330;2023-06-19T08:17:00;98786.88;;;26.59;50.14
24762;BME280;12865;51.934;10.330;2023-06-19T08:19:46;98790.66;;;26.75;50.78
24762;BME280;12865;51.934;10.330;2023-06-19T08:22:31;98781.31;;;26.92;48.34
24762;BME280;12865;51.934;10.330;2023-06-19T08:25:17;98784.63;;;26.94;45.54
24762;BME280;12865;51.934;10.330;2023-06-19T08:28:03;98785.56;;;27.05;45.00
24762;BME280;12865;51.934;10.330;2023-06-19T08:30:50;98782.84;;;27.05;45.30
24762;BME280;12865;51.934;10.330;2023-06-19T08:33:35;98784.38;;;26.96;44.12
24762;BME280;12865;51.934;10.330;2023-06-19T08:36:21;98784.47;;;27.06;44.35
24762;BME280;12865;51.934;10.330;2023-06-19T08:39:07;98794.19;;;27.19;43.24
24762;BME280;12865;51.934;10.330;2023-06-19T08:41:53;98793.81;;;27.37;42.69
24762;BME280;12865;51.934;10.330;2023-06-19T08:44:39;98787.78;;;27.08;51.30
24762;BME280;12865;51.934;10.330;2023-06-19T08:47:29;98788.31;;;27.32;49.63
24762;BME280;12865;51.934;10.330;2023-06-19T08:50:16;98785.78;;;27.52;47.24
24762;BME280;12865;51.934;10.330;2023-06-19T08:53:01;98788.75;;;27.78;46.91
24762;BME280;12865;51.934;10.330;2023-06-19T08:55:47;98779.22;;;27.85;46.87
24762;BME280;12865;51.934;10.330;2023-06-19T08:58:33;98792.34;;;27.83;45.88
24762;BME280;12865;51.934;10.330;2023-06-19T09:01:19;98789.66;;;27.88;41.41
24762;BME280;12865;51.934;10.330;2023-06-19T09:04:09;98785.66;;;28.43;40.72
24762;BME280;12865;51.934;10.330;2023-06-19T09:06:59;98794.31;;;28.72;37.38
24762;BME280;12865;51.934;10.330;2023-06-19T09:09:46;98802.88;;;28.80;39.58
24762;BME280;12865;51.934;10.330;2023-06-19T09:12:32;98800.47;;;28.47;37.48
24762;BME280;12865;51.934;10.330;2023-06-19T09:15:19;98799.78;;;27.88;37.33
24762;BME280;12865;51.934;10.330;2023-06-19T09:18:09;98798.56;;;28.10;37.97
24762;BME280;12865;51.934;10.330;2023-06-19T09:20:54;98803.72;;;28.39;37.03
24762;BME280;12865;51.934;10.330;2023-06-19T09:23:40;98804.91;;;28.53;36.41
24762;BME280;12865;51.934;10.330;2023-06-19T09:26:26;98796.38;;;28.44;37.16
24762;BME280;12865;51.934;10.330;2023-06-19T09:29:13;98799.38;;;28.48;36.10
24762;BME280;12865;51.934;10.330;2023-06-19T09:32:01;98804.50;;;28.76;36.84
24762;BME280;12865;51.934;10.330;2023-06-19T09:34:47;98802.31;;;28.78;36.33
24762;BME280;12865;51.934;10.330;2023-06-19T09:37:34;98802.63;;;28.87;37.95
24762;BME280;12865;51.934;10.330;2023-06-19T09:40:20;98799.28;;;28.75;38.12
24762;BME280;12865;51.934;10.330;2023-06-19T09:43:07;98790.94;;;28.60;37.52
24762;BME280;12865;51.934;10.330;2023-06-19T09:45:55;98793.84;;;28.85;38.08
24762;BME280;12865;51.934;10.330;2023-06-19T09:48:43;98799.00;;;28.76;37.72
24762;BME280;12865;51.934;10.330;2023-06-19T09:51:37;98805.28;;;29.34;37.97
24762;BME280;12865;51.934;10.330;2023-06-19T09:54:24;98808.41;;;28.90;38.15
24762;BME280;12865;51.934;10.330;2023-06-19T09:57:11;98808.06;;;28.30;39.23
24762;BME280;12865;51.934;10.330;2023-06-19T09:59:58;98809.78;;;28.46;40.18
24762;BME280;12865;51.934;10.330;2023-06-19T10:02:46;98819.44;;;28.53;40.39
24762;BME280;12865;51.934;10.330;2023-06-19T10:05:32;98821.53;;;28.31;39.52
24762;BME280;12865;51.934;10.330;2023-06-19T10:08:27;98817.84;;;28.16;40.09
24762;BME280;12865;51.934;10.330;2023-06-19T10:11:13;98814.25;;;28.57;39.58
24762;BME280;12865;51.934;10.330;2023-06-19T10:14:06;98819.63;;;28.84;40.51
24762;BME280;12865;51.934;10.330;2023-06-19T10:16:52;98823.59;;;29.13;39.29
24762;BME280;12865;51.934;10.330;2023-06-19T10:19:38;98832.28;;;28.95;40.59
24762;BME280;12865;51.934;10.330;2023-06-19T10:22:34;98840.06;;;29.18;39.54
24762;BME280;12865;51.934;10.330;2023-06-19T10:25:23;98840.59;;;28.58;40.67
24762;BME280;12865;51.934;10.330;2023-06-19T10:31:10;98837.56;;;28.55;42.50
24762;BME280;12865;51.934;10.330;2023-06-19T10:33:56;98840.59;;;28.58;42.82
24762;BME280;12865;51.934;10.330;2023-06-19T10:36:42;98834.16;;;28.79;42.85
24762;BME280;12865;51.934;10.330;2023-06-19T10:39:27;98837.75;;;28.85;41.78
24762;BME280;12865;51.934;10.330;2023-06-19T10:42:13;98838.81;;;28.79;42.55
24762;BME280;12865;51.934;10.330;2023-06-19T10:45:07;98842.31;;;28.74;42.22
24762;BME280;12865;51.934;10.330;2023-06-19T10:47:55;98838.72;;;29.21;41.76
24762;BME280;12865;51.934;10.330;2023-06-19T10:50:42;98841.03;;;29.75;42.03
24762;BME280;12865;51.934;10.330;2023-06-19T10:53:31;98831.16;;;29.89;41.65
24762;BME280;12865;51.934;10.330;2023-06-19T10:56:20;98833.88;;;29.43;42.93
24762;BME280;12865;51.934;10.330;2023-06-19T10:59:07;98827.63;;;28.96;44.55
24762;BME280;12865;51.934;10.330;2023-06-19T11:02:00;98829.84;;;29.04;44.81
24762;BME280;12865;51.934;10.330;2023-06-19T11:04:45;98820.84;;;29.18;44.57
24762;BME280;12865;51.934;10.330;2023-06-19T11:07:32;98820.78;;;28.93;44.72
24762;BME280;12865;51.934;10.330;2023-06-19T11:10:23;98810.44;;;28.58;46.26
24762;BME280;12865;51.934;10.330;2023-06-19T11:13:14;98813.97;;;29.11;46.33
24762;BME280;12865;51.934;10.330;2023-06-19T11:16:00;98823.34;;;29.30;44.96
24762;BME280;12865;51.934;10.330;2023-06-19T11:18:46;98817.91;;;29.40;44.12
24762;BME280;12865;51.934;10.330;2023-06-19T11:21:37;98828.63;;;29.47;44.94
24762;BME280;12865;51.934;10.330;2023-06-19T11:24:23;98831.03;;;29.28;44.82
24762;BME280;12865;51.934;10.330;2023-06-19T11:27:17;98829.59;;;29.05;46.06
24762;BME280;12865;51.934;10.330;2023-06-19T11:30:03;98817.72;;;28.84;45.88
24762;BME280;12865;51.934;10.330;2023-06-19T11:32:52;98819.13;;;28.92;46.27
24762;BME280;12865;51.934;10.330;2023-06-19T11:35:37;98818.31;;;29.02;46.91
24762;BME280;12865;51.934;10.330;2023-06-19T11:38:25;98819.84;;;29.35;46.39
24762;BME280;12865;51.934;10.330;2023-06-19T11:41:12;98819.56;;;29.46;45.51
24762;BME280;12865;51.934;10.330;2023-06-19T11:43:59;98824.69;;;29.12;46.56
24762;BME280;12865;51.934;10.330;2023-06-19T11:46:45;98820.69;;;29.55;44.58
24762;BME280;12865;51.934;10.330;2023-06-19T11:49:35;98828.94;;;30.41;44.67
24762;BME280;12865;51.934;10.330;2023-06-19T11:52:21;98824.53;;;30.56;42.87
24762;BME280;12865;51.934;10.330;2023-06-19T11:55:07;98827.34;;;31.15;42.79
24762;BME280;12865;51.934;10.330;2023-06-19T11:57:52;98828.41;;;30.34;43.74
24762;BME280;12865;51.934;10.330;2023-06-19T12:00:38;98828.94;;;29.50;44.05
24762;BME280;12865;51.934;10.330;2023-06-19T12:03:24;98830.63;;;30.32;43.56
24762;BME280;12865;51.934;10.330;2023-06-19T12:06:10;98823.13;;;30.63;42.24
24762;BME280;12865;51.934;10.330;2023-06-19T12:08:56;98826.47;;;30.40;44.13
24762;BME280;12865;51.934;10.330;2023-06-19T12:11:41;98820.16;;;29.89;44.53
24762;BME280;12865;51.934;10.330;2023-06-19T12:14:27;98820.19;;;29.94;44.99
24762;BME280;12865;51.934;10.330;2023-06-19T12:17:13;98826.75;;;29.73;45.38
24762;BME280;12865;51.934;10.330;2023-06-19T12:19:59;98820.72;;;30.11;44.86
24762;BME280;12865;51.934;10.330;2023-06-19T12:22:44;98826.50;;;30.25;43.72
24762;BME280;12865;51.934;10.330;2023-06-19T12:25:30;98815.19;;;29.86;45.70
24762;BME280;12865;51.934;10.330;2023-06-19T12:28:16;98813.50;;;29.39;46.93
24762;BME280;12865;51.934;10.330;2023-06-19T12:31:04;98821.25;;;29.67;46.80
24762;BME280;12865;51.934;10.330;2023-06-19T12:33:50;98817.84;;;29.25;48.12
24762;BME280;12865;51.934;10.330;2023-06-19T12:36:36;98812.34;;;29.20;47.95
24762;BME280;12865;51.934;10.330;2023-06-19T12:39:22;98810.25;;;29.57;46.94
24762;BME280;12865;51.934;10.330;2023-06-19T12:42:08;98798.44;;;29.62;47.63
24762;BME280;12865;51.934;10.330;2023-06-19T12:44:54;98799.81;;;29.80;45.65
24762;BME280;12865;51.934;10.330;2023-06-19T12:47:40;98816.31;;;29.80;44.90
24762;BME280;12865;51.934;10.330;2023-06-19T12:50:26;98822.94;;;29.79;44.69
24762;BME280;12865;51.934;10.330;2023-06-19T12:53:11;98822.66;;;30.05;45.23
24762;BME280;12865;51.934;10.330;2023-06-19T12:55:57;98825.13;;;29.72;45.56
24762;BME280;12865;51.934;10.330;2023-06-19T12:58:43;98817.34;;;29.38;46.49
24762;BME280;12865;51.934;10.330;2023-06-19T13:01:29;98815.09;;;29.20;47.24
24762;BME280;12865;51.934;10.330;2023-06-19T13:04:15;98819.97;;;28.98;48.41
24762;BME280;12865;51.934;10.330;2023-06-19T13:07:00;98821.66;;;29.14;48.64
24762;BME280;12865;51.934;10.330;2023-06-19T13:09:46;98818.97;;;29.29;48.34
24762;BME280;12865;51.934;10.330;2023-06-19T13:12:32;98817.91;;;29.45;48.41
24762;BME280;12865;51.934;10.330;2023-06-19T13:15:18;98820.00;;;29.13;49.19
24762;BME280;12865;51.934;10.330;2023-06-19T13:18:03;98816.41;;;29.02;48.72
24762;BME280;12865;51.934;10.330;2023-06-19T13:20:49;98815.94;;;28.68;49.99
24762;BME280;12865;51.934;10.330;2023-06-19T13:23:35;98816.19;;;29.14;50.06
24762;BME280;12865;51.934;10.330;2023-06-19T13:26:20;98820.41;;;29.37;48.85
24762;BME280;12865;51.934;10.330;2023-06-19T13:29:06;98822.44;;;29.04;49.08
24762;BME280;12865;51.934;10.330;2023-06-19T13:31:52;98817.69;;;28.79;49.95
24762;BME280;12865;51.934;10.330;2023-06-19T13:34:37;98815.44;;;28.71;50.63
24762;BME280;12865;51.934;10.330;2023-06-19T13:37:23;98818.06;;;29.03;50.69
24762;BME280;12865;51.934;10.330;2023-06-19T13:40:09;98810.13;;;29.07;51.42
24762;BME280;12865;51.934;10.330;2023-06-19T13:42:55;98818.28;;;28.92;52.88
24762;BME280;12865;51.934;10.330;2023-06-19T13:45:41;98814.53;;;29.18;52.92
24762;BME280;12865;51.934;10.330;2023-06-19T13:48:26;98812.31;;;29.10;52.67
24762;BME280;12865;51.934;10.330;2023-06-19T13:51:12;98805.22;;;29.24;52.27
24762;BME280;12865;51.934;10.330;2023-06-19T13:54:00;98802.66;;;28.97;53.71
24762;BME280;12865;51.934;10.330;2023-06-19T13:56:48;98804.88;;;29.00;53.60
24762;BME280;12865;51.934;10.330;2023-06-19T13:59:34;98808.41;;;28.85;54.06
24762;BME280;12865;51.934;10.330;2023-06-19T14:02:20;98811.06;;;28.75;54.83
24762;BME280;12865;51.934;10.330;2023-06-19T14:05:06;98813.63;;;28.87;54.54
24762;BME280;12865;51.934;10.330;2023-06-19T14:07:54;98804.34;;;28.51;56.05
24762;BME280;12865;51.934;10.330;2023-06-19T14:10:40;98813.59;;;28.35;56.42
24762;BME280;12865;51.934;10.330;2023-06-19T14:13:25;98817.03;;;28.67;55.91
24762;BME280;12865;51.934;10.330;2023-06-19T14:16:11;98818.69;;;28.63;56.18
24762;BME280;12865;51.934;10.330;2023-06-19T14:18:57;98820.16;;;28.81;55.63
24762;BME280;12865;51.934;10.330;2023-06-19T14:21:42;98826.09;;;28.68;55.46
24762;BME280;12865;51.934;10.330;2023-06-19T14:24:28;98824.44;;;28.67;56.60
24762;BME280;12865;51.934;10.330;2023-06-19T14:27:14;98824.38;;;28.51;57.34
24762;BME280;12865;51.934;10.330;2023-06-19T14:30:00;98819.78;;;28.67;55.58
24762;BME280;12865;51.934;10.330;2023-06-19T14:32:47;98825.13;;;28.84;54.89
24762;BME280;12865;51.934;10.330;2023-06-19T14:35:32;98825.81;;;28.59;56.07